sensor_id;sensor_type;location;lat;lon;timestamp;temperature;humidity
15481;DHT22;7842;50.904;6.670;2024-02-23T00:00:04;8.20;99.90
15481;DHT22;7842;50.904;6.670;2024-02-23T00:02:31;8.20;99.90
15481;DHT22;7842;50.904;6.670;2024-02-23T00:04:57;8.20;99.90
15481;DHT22;7842;50.904;6.670;2024-02-23T00:07:23;8.00;99.90
15481;DHT22;7842;50.904;6.670;2024-02-23T00:09:49;7.70;99.90
15481;DHT22;7842;50.904;6.670;2024-02-23T00:12:14;7.60;99.90
15481;DHT22;7842;50.904;6.670;2024-02-23T00:14:40;7.40;99.90
15481;DHT22;7842;50.904;6.670;2024-02-23T00:17:06;7.30;99.90
15481;DHT22;7842;50.904;6.670;2024-02-23T00:19:32;7.20;99.90
15481;DHT22;7842;50.904;6.670;2024-02-23T00:21:58;7.20;99.90
15481;DHT22;7842;50.904;6.670;2024-02-23T00:24:25;7.10;99.90
15481;DHT22;7842;50.904;6.670;2024-02-23T00:26:51;7.10;99.90
15481;DHT22;7842;50.904;6.670;2024-02-23T00:29:17;7.10;99.90
15481;DHT22;7842;50.904;6.670;2024-02-23T00:31:43;6.90;99.90
15481;DHT22;7842;50.904;6.670;2024-02-23T00:34:10;6.90;99.90
15481;DHT22;7842;50.904;6.670;2024-02-23T00:36:39;7.00;99.90
15481;DHT22;7842;50.904;6.670;2024-02-23T00:39:05;7.10;99.90
15481;DHT22;7842;50.904;6.670;2024-02-23T00:41:32;7.00;99.90
15481;DHT22;7842;50.904;6.670;2024-02-23T00:43:58;7.00;99.90
15481;DHT22;7842;50.904;6.670;2024-02-23T00:46:24;7.00;99.90
15481;DHT22;7842;50.904;6.670;2024-02-23T00:48:49;6.90;99.90
15481;DHT22;7842;50.904;6.670;2024-02-23T00:51:15;7.10;99.90
15481;DHT22;7842;50.904;6.670;2024-02-23T00:53:40;7.00;99.90
15481;DHT22;7842;50.904;6.670;2024-02-23T00:56:06;7.10;99.90
15481;DHT22;7842;50.904;6.670;2024-02-23T00:58:32;7.00;99.90
15481;DHT22;7842;50.904;6.670;2024-02-23T01:00:58;7.00;99.90
15481;DHT22;7842;50.904;6.670;2024-02-23T01:03:24;7.10;99.90
15481;DHT22;7842;50.904;6.670;2024-02-23T01:05:49;7.00;99.90
15481;DHT22;7842;50.904;6.670;2024-02-23T01:08:15;6.80;99.90
15481;DHT22;7842;50.904;6.670;2024-02-23T01:10:40;6.80;99.90
15481;DHT22;7842;50.904;6.670;2024-02-23T01:13:06;6.90;99.90
15481;DHT22;7842;50.904;6.670;2024-02-23T01:15:32;6.90;99.90
15481;DHT22;7842;50.904;6.670;2024-02-23T01:17:57;6.80;99.90
15481;DHT22;7842;50.904;6.670;2024-02-23T01:20:23;6.90;99.90
15481;DHT22;7842;50.904;6.670;2024-02-23T01:22:49;6.80;99.90
15481;DHT22;7842;50.904;6.670;2024-02-23T01:25:14;6.60;99.90
15481;DHT22;7842;50.904;6.670;2024-02-23T01:27:41;6.70;99.90
15481;DHT22;7842;50.904;6.670;2024-02-23T01:30:07;6.60;99.90
15481;DHT22;7842;50.904;6.670;2024-02-23T01:32:33;6.70;99.90
15481;DHT22;7842;50.904;6.670;2024-02-23T01:34:59;6.50;99.90
15481;DHT22;7842;50.904;6.670;2024-02-23T01:37:24;6.40;99.90
15481;DHT22;7842;50.904;6.670;2024-02-23T01:39:50;6.60;99.90
15481;DHT22;7842;50.904;6.670;2024-02-23T01:42:16;6.70;99.90
15481;DHT22;7842;50.904;6.670;2024-02-23T01:44:41;6.40;99.90
15481;DHT22;7842;50.904;6.670;2024-02-23T01:47:07;6.60;99.90
15481;DHT22;7842;50.904;6.670;2024-02-23T01:49:33;6.50;99.90
15481;DHT22;7842;50.904;6.670;2024-02-23T01:52:00;6.60;99.90
15481;DHT22;7842;50.904;6.670;2024-02-23T01:54:26;6.50;99.90
15481;DHT22;7842;50.904;6.670;2024-02-23T01:56:54;6.40;99.90
15481;DHT22;7842;50.904;6.670;2024-02-23T01:59:20;6.40;99.90
15481;DHT22;7842;50.904;6.670;2024-02-23T02:01:46;6.50;99.90
15481;DHT22;7842;50.904;6.670;2024-02-23T02:04:12;6.60;99.90
15481;DHT22;7842;50.904;6.670;2024-02-23T02:06:37;6.50;99.90
15481;DHT22;7842;50.904;6.670;2024-02-23T02:09:03;6.50;99.90
15481;DHT22;7842;50.904;6.670;2024-02-23T02:11:29;6.50;99.90
15481;DHT22;7842;50.904;6.670;2024-02-23T02:13:54;6.50;99.90
15481;DHT22;7842;50.904;6.670;2024-02-23T02:16:20;6.50;99.90
15481;DHT22;7842;50.904;6.670;2024-02-23T02:18:46;6.60;99.90
15481;DHT22;7842;50.904;6.670;2024-02-23T02:21:11;6.60;99.90
15481;DHT22;7842;50.904;6.670;2024-02-23T02:23:37;6.60;99.90
15481;DHT22;7842;50.904;6.670;2024-02-23T02:26:03;6.50;99.90
15481;DHT22;7842;50.904;6.670;2024-02-23T02:28:29;6.50;99.90
15481;DHT22;7842;50.904;6.670;2024-02-23T02:30:55;6.40;99.90
15481;DHT22;7842;50.904;6.670;2024-02-23T02:33:21;6.40;99.90
15481;DHT22;7842;50.904;6.670;2024-02-23T02:35:48;6.50;99.90
15481;DHT22;7842;50.904;6.670;2024-02-23T02:38:15;6.50;99.90
15481;DHT22;7842;50.904;6.670;2024-02-23T02:40:40;6.50;99.90
15481;DHT22;7842;50.904;6.670;2024-02-23T02:43:06;6.60;99.90
15481;DHT22;7842;50.904;6.670;2024-02-23T02:45:32;6.40;99.90
15481;DHT22;7842;50.904;6.670;2024-02-23T02:48:00;6.40;99.90
15481;DHT22;7842;50.904;6.670;2024-02-23T02:50:26;6.30;99.90
15481;DHT22;7842;50.904;6.670;2024-02-23T02:52:52;6.30;99.90
15481;DHT22;7842;50.904;6.670;2024-02-23T02:55:17;6.30;99.90
15481;DHT22;7842;50.904;6.670;2024-02-23T02:57:44;6.40;99.90
15481;DHT22;7842;50.904;6.670;2024-02-23T03:00:11;6.30;99.90
15481;DHT22;7842;50.904;6.670;2024-02-23T03:02:36;6.20;99.90
15481;DHT22;7842;50.904;6.670;2024-02-23T03:05:02;6.20;99.90
15481;DHT22;7842;50.904;6.670;2024-02-23T03:07:28;6.30;99.90
15481;DHT22;7842;50.904;6.670;2024-02-23T03:09:53;6.30;99.90
15481;DHT22;7842;50.904;6.670;2024-02-23T03:12:19;6.40;99.90
15481;DHT22;7842;50.904;6.670;2024-02-23T03:14:45;6.40;99.90
15481;DHT22;7842;50.904;6.670;2024-02-23T03:17:10;6.30;99.90
15481;DHT22;7842;50.904;6.670;2024-02-23T03:19:37;6.20;99.90
15481;DHT22;7842;50.904;6.670;2024-02-23T03:22:02;6.30;99.90
15481;DHT22;7842;50.904;6.670;2024-02-23T03:24:28;6.20;99.90
15481;DHT22;7842;50.904;6.670;2024-02-23T03:26:54;6.20;99.90
15481;DHT22;7842;50.904;6.670;2024-02-23T03:29:20;6.40;99.90
15481;DHT22;7842;50.904;6.670;2024-02-23T03:31:47;6.40;99.90
15481;DHT22;7842;50.904;6.670;2024-02-23T03:34:13;6.30;99.90
15481;DHT22;7842;50.904;6.670;2024-02-23T03:36:38;6.20;99.90
15481;DHT22;7842;50.904;6.670;2024-02-23T03:39:04;6.30;99.90
15481;DHT22;7842;50.904;6.670;2024-02-23T03:41:29;6.40;99.90
15481;DHT22;7842;50.904;6.670;2024-02-23T03:43:55;6.30;99.90
15481;DHT22;7842;50.904;6.670;2024-02-23T03:46:21;6.40;99.90
15481;DHT22;7842;50.904;6.670;2024-02-23T03:48:47;6.40;99.90
15481;DHT22;7842;50.904;6.670;2024-02-23T03:51:13;6.40;99.90
15481;DHT22;7842;50.904;6.670;2024-02-23T03:53:38;6.30;99.90
15481;DHT22;7842;50.904;6.670;2024-02-23T03:56:04;6.50;99.90
15481;DHT22;7842;50.904;6.670;2024-02-23T03:58:30;6.50;99.90
15481;DHT22;7842;50.904;6.670;2024-02-23T04:00:55;6.50;99.90
15481;DHT22;7842;50.904;6.670;2024-02-23T04:03:21;6.40;99.90
15481;DHT22;7842;50.904;6.670;2024-02-23T04:05:46;6.40;99.90
15481;DHT22;7842;50.904;6.670;2024-02-23T04:08:12;6.40;99.90
15481;DHT22;7842;50.904;6.670;2024-02-23T04:10:38;6.40;99.90
15481;DHT22;7842;50.904;6.670;2024-02-23T04:13:04;6.40;99.90
15481;DHT22;7842;50.904;6.670;2024-02-23T04:15:29;6.40;99.90
15481;DHT22;7842;50.904;6.670;2024-02-23T04:17:55;6.40;99.90
15481;DHT22;7842;50.904;6.670;2024-02-23T04:20:21;6.50;99.90
15481;DHT22;7842;50.904;6.670;2024-02-23T04:22:46;6.30;99.90
15481;DHT22;7842;50.904;6.670;2024-02-23T04:25:12;6.30;99.90
15481;DHT22;7842;50.904;6.670;2024-02-23T04:27:38;6.40;99.90
15481;DHT22;7842;50.904;6.670;2024-02-23T04:30:04;6.40;99.90
15481;DHT22;7842;50.904;6.670;2024-02-23T04:32:31;6.30;99.90
15481;DHT22;7842;50.904;6.670;2024-02-23T04:34:56;6.30;99.90
15481;DHT22;7842;50.904;6.670;2024-02-23T04:37:22;6.30;99.90
15481;DHT22;7842;50.904;6.670;2024-02-23T04:39:47;6.30;99.90
15481;DHT22;7842;50.904;6.670;2024-02-23T04:42:13;6.30;99.90
15481;DHT22;7842;50.904;6.670;2024-02-23T04:44:41;6.20;99.90
15481;DHT22;7842;50.904;6.670;2024-02-23T04:47:07;6.20;99.90
15481;DHT22;7842;50.904;6.670;2024-02-23T04:49:33;6.20;99.90
15481;DHT22;7842;50.904;6.670;2024-02-23T04:51:58;6.10;99.90
15481;DHT22;7842;50.904;6.670;2024-02-23T04:54:24;6.10;99.90
15481;DHT22;7842;50.904;6.670;2024-02-23T04:56:50;6.20;99.90
15481;DHT22;7842;50.904;6.670;2024-02-23T04:59:16;6.10;99.90
15481;DHT22;7842;50.904;6.670;2024-02-23T05:01:41;6.10;99.90
15481;DHT22;7842;50.904;6.670;2024-02-23T05:04:08;6.10;99.90
15481;DHT22;7842;50.904;6.670;2024-02-23T05:06:33;6.10;99.90
15481;DHT22;7842;50.904;6.670;2024-02-23T05:08:59;6.10;99.90
15481;DHT22;7842;50.904;6.670;2024-02-23T05:11:25;6.00;99.90
15481;DHT22;7842;50.904;6.670;2024-02-23T05:13:50;6.10;99.90
15481;DHT22;7842;50.904;6.670;2024-02-23T05:16:16;6.00;99.90
15481;DHT22;7842;50.904;6.670;2024-02-23T05:18:43;6.00;99.90
15481;DHT22;7842;50.904;6.670;2024-02-23T05:21:09;6.00;99.90
15481;DHT22;7842;50.904;6.670;2024-02-23T05:23:35;6.00;99.90
15481;DHT22;7842;50.904;6.670;2024-02-23T05:26:01;6.00;99.90
15481;DHT22;7842;50.904;6.670;2024-02-23T05:28:26;5.90;99.90
15481;DHT22;7842;50.904;6.670;2024-02-23T05:30:54;5.90;99.90
15481;DHT22;7842;50.904;6.670;2024-02-23T05:33:19;5.90;99.90
15481;DHT22;7842;50.904;6.670;2024-02-23T05:35:46;6.00;99.90
15481;DHT22;7842;50.904;6.670;2024-02-23T05:38:14;5.90;99.90
15481;DHT22;7842;50.904;6.670;2024-02-23T05:40:40;5.90;99.90
15481;DHT22;7842;50.904;6.670;2024-02-23T05:43:05;5.90;99.90
15481;DHT22;7842;50.904;6.670;2024-02-23T05:45:31;5.90;99.90
15481;DHT22;7842;50.904;6.670;2024-02-23T05:47:57;6.00;99.90
15481;DHT22;7842;50.904;6.670;2024-02-23T05:50:23;6.00;99.90
15481;DHT22;7842;50.904;6.670;2024-02-23T05:52:48;5.90;99.90
15481;DHT22;7842;50.904;6.670;2024-02-23T05:55:14;5.90;99.90
15481;DHT22;7842;50.904;6.670;2024-02-23T05:57:40;6.10;99.90
15481;DHT22;7842;50.904;6.670;2024-02-23T06:00:06;6.10;99.90
15481;DHT22;7842;50.904;6.670;2024-02-23T06:02:35;6.10;99.90
15481;DHT22;7842;50.904;6.670;2024-02-23T06:05:00;6.00;99.90
15481;DHT22;7842;50.904;6.670;2024-02-23T06:07:26;6.10;99.90
15481;DHT22;7842;50.904;6.670;2024-02-23T06:09:58;6.00;99.90
15481;DHT22;7842;50.904;6.670;2024-02-23T06:12:24;6.00;99.90
15481;DHT22;7842;50.904;6.670;2024-02-23T06:14:50;5.90;99.90
15481;DHT22;7842;50.904;6.670;2024-02-23T06:17:16;5.90;99.90
15481;DHT22;7842;50.904;6.670;2024-02-23T06:19:42;5.80;99.90
15481;DHT22;7842;50.904;6.670;2024-02-23T06:22:07;5.70;99.90
15481;DHT22;7842;50.904;6.670;2024-02-23T06:24:35;5.70;99.90
15481;DHT22;7842;50.904;6.670;2024-02-23T06:27:01;5.80;99.90
15481;DHT22;7842;50.904;6.670;2024-02-23T06:29:28;5.80;99.90
15481;DHT22;7842;50.904;6.670;2024-02-23T06:31:54;5.70;99.90
15481;DHT22;7842;50.904;6.670;2024-02-23T06:34:20;5.70;99.90
15481;DHT22;7842;50.904;6.670;2024-02-23T06:36:46;5.80;99.90
15481;DHT22;7842;50.904;6.670;2024-02-23T06:39:11;5.80;99.90
15481;DHT22;7842;50.904;6.670;2024-02-23T06:41:38;5.80;99.90
15481;DHT22;7842;50.904;6.670;2024-02-23T06:44:04;5.90;99.90
15481;DHT22;7842;50.904;6.670;2024-02-23T06:46:30;5.90;99.90
15481;DHT22;7842;50.904;6.670;2024-02-23T06:48:56;5.80;99.90
15481;DHT22;7842;50.904;6.670;2024-02-23T06:51:21;5.80;99.90
15481;DHT22;7842;50.904;6.670;2024-02-23T06:53:47;5.70;99.90
15481;DHT22;7842;50.904;6.670;2024-02-23T06:56:13;5.90;99.90
15481;DHT22;7842;50.904;6.670;2024-02-23T06:58:38;5.80;99.90
15481;DHT22;7842;50.904;6.670;2024-02-23T07:01:04;5.70;99.90
15481;DHT22;7842;50.904;6.670;2024-02-23T07:03:35;5.60;99.90
15481;DHT22;7842;50.904;6.670;2024-02-23T07:06:06;5.70;99.90
15481;DHT22;7842;50.904;6.670;2024-02-23T07:08:32;5.70;99.90
15481;DHT22;7842;50.904;6.670;2024-02-23T07:10:57;5.80;99.90
15481;DHT22;7842;50.904;6.670;2024-02-23T07:13:23;5.90;99.90
15481;DHT22;7842;50.904;6.670;2024-02-23T07:15:48;5.90;99.90
15481;DHT22;7842;50.904;6.670;2024-02-23T07:18:14;5.90;99.90
15481;DHT22;7842;50.904;6.670;2024-02-23T07:20:41;6.00;99.90
15481;DHT22;7842;50.904;6.670;2024-02-23T07:23:07;5.90;99.90
15481;DHT22;7842;50.904;6.670;2024-02-23T07:25:33;5.90;99.90
15481;DHT22;7842;50.904;6.670;2024-02-23T07:27:58;5.90;99.90
15481;DHT22;7842;50.904;6.670;2024-02-23T07:30:24;6.10;99.90
15481;DHT22;7842;50.904;6.670;2024-02-23T07:32:49;6.30;99.90
15481;DHT22;7842;50.904;6.670;2024-02-23T07:35:15;6.50;99.90
15481;DHT22;7842;50.904;6.670;2024-02-23T07:37:41;6.70;99.90
15481;DHT22;7842;50.904;6.670;2024-02-23T07:40:07;7.00;99.90
15481;DHT22;7842;50.904;6.670;2024-02-23T07:42:33;7.10;99.90
15481;DHT22;7842;50.904;6.670;2024-02-23T07:45:02;7.20;99.90
15481;DHT22;7842;50.904;6.670;2024-02-23T07:47:30;7.40;99.90
15481;DHT22;7842;50.904;6.670;2024-02-23T07:49:55;7.50;99.90
15481;DHT22;7842;50.904;6.670;2024-02-23T07:52:21;7.40;99.90
15481;DHT22;7842;50.904;6.670;2024-02-23T07:54:49;7.40;99.90
15481;DHT22;7842;50.904;6.670;2024-02-23T07:57:17;7.60;99.90
15481;DHT22;7842;50.904;6.670;2024-02-23T07:59:43;7.70;99.90
15481;DHT22;7842;50.904;6.670;2024-02-23T08:02:08;7.60;99.90
15481;DHT22;7842;50.904;6.670;2024-02-23T08:04:34;7.60;99.90
15481;DHT22;7842;50.904;6.670;2024-02-23T08:06:59;7.60;99.90
15481;DHT22;7842;50.904;6.670;2024-02-23T08:09:25;7.50;99.90
15481;DHT22;7842;50.904;6.670;2024-02-23T08:11:51;7.50;99.90
15481;DHT22;7842;50.904;6.670;2024-02-23T08:14:16;7.50;99.90
15481;DHT22;7842;50.904;6.670;2024-02-23T08:16:42;7.50;99.90
15481;DHT22;7842;50.904;6.670;2024-02-23T08:19:07;7.50;99.90
15481;DHT22;7842;50.904;6.670;2024-02-23T08:21:33;7.60;99.90
15481;DHT22;7842;50.904;6.670;2024-02-23T08:23:59;7.60;99.90
15481;DHT22;7842;50.904;6.670;2024-02-23T08:26:24;7.60;99.90
15481;DHT22;7842;50.904;6.670;2024-02-23T08:28:50;7.80;99.90
15481;DHT22;7842;50.904;6.670;2024-02-23T08:31:16;7.80;99.90
15481;DHT22;7842;50.904;6.670;2024-02-23T08:33:42;7.80;99.90
15481;DHT22;7842;50.904;6.670;2024-02-23T08:36:07;7.90;99.90
15481;DHT22;7842;50.904;6.670;2024-02-23T08:38:33;7.80;99.90
15481;DHT22;7842;50.904;6.670;2024-02-23T08:40:59;7.80;99.90
15481;DHT22;7842;50.904;6.670;2024-02-23T08:43:24;7.70;99.90
15481;DHT22;7842;50.904;6.670;2024-02-23T08:45:50;7.90;99.90
15481;DHT22;7842;50.904;6.670;2024-02-23T08:48:16;8.00;99.90
15481;DHT22;7842;50.904;6.670;2024-02-23T08:50:42;8.20;99.90
15481;DHT22;7842;50.904;6.670;2024-02-23T08:53:07;8.10;99.90
15481;DHT22;7842;50.904;6.670;2024-02-23T08:55:33;8.00;99.90
15481;DHT22;7842;50.904;6.670;2024-02-23T08:57:59;8.10;99.90
15481;DHT22;7842;50.904;6.670;2024-02-23T09:00:24;8.20;99.90
15481;DHT22;7842;50.904;6.670;2024-02-23T09:02:50;8.10;99.90
15481;DHT22;7842;50.904;6.670;2024-02-23T09:05:16;8.10;99.90
15481;DHT22;7842;50.904;6.670;2024-02-23T09:07:41;8.20;99.90
15481;DHT22;7842;50.904;6.670;2024-02-23T09:10:07;8.20;99.90
15481;DHT22;7842;50.904;6.670;2024-02-23T09:12:33;8.20;99.90
15481;DHT22;7842;50.904;6.670;2024-02-23T09:14:59;8.10;99.90
15481;DHT22;7842;50.904;6.670;2024-02-23T09:17:25;8.00;99.90
15481;DHT22;7842;50.904;6.670;2024-02-23T09:19:51;8.20;99.90
15481;DHT22;7842;50.904;6.670;2024-02-23T09:22:16;8.30;99.90
15481;DHT22;7842;50.904;6.670;2024-02-23T09:24:42;8.40;99.90
15481;DHT22;7842;50.904;6.670;2024-02-23T09:27:08;8.70;99.90
15481;DHT22;7842;50.904;6.670;2024-02-23T09:29:34;8.80;99.90
15481;DHT22;7842;50.904;6.670;2024-02-23T09:32:00;8.90;99.90
15481;DHT22;7842;50.904;6.670;2024-02-23T09:34:26;9.00;99.90
15481;DHT22;7842;50.904;6.670;2024-02-23T09:36:52;9.10;99.90
15481;DHT22;7842;50.904;6.670;2024-02-23T09:39:17;9.10;99.90
15481;DHT22;7842;50.904;6.670;2024-02-23T09:41:43;9.10;99.90
15481;DHT22;7842;50.904;6.670;2024-02-23T09:44:09;9.00;99.90
15481;DHT22;7842;50.904;6.670;2024-02-23T09:46:36;9.00;99.90
15481;DHT22;7842;50.904;6.670;2024-02-23T09:49:03;9.00;99.90
15481;DHT22;7842;50.904;6.670;2024-02-23T09:51:29;9.00;99.90
15481;DHT22;7842;50.904;6.670;2024-02-23T09:53:57;9.00;99.90
15481;DHT22;7842;50.904;6.670;2024-02-23T09:56:26;9.10;99.90
15481;DHT22;7842;50.904;6.670;2024-02-23T09:58:53;9.20;99.90
15481;DHT22;7842;50.904;6.670;2024-02-23T10:01:27;9.20;99.90
15481;DHT22;7842;50.904;6.670;2024-02-23T10:03:57;9.20;99.90
15481;DHT22;7842;50.904;6.670;2024-02-23T10:06:27;9.30;99.90
15481;DHT22;7842;50.904;6.670;2024-02-23T10:08:53;9.50;99.90
15481;DHT22;7842;50.904;6.670;2024-02-23T10:11:23;9.50;99.90
15481;DHT22;7842;50.904;6.670;2024-02-23T10:13:49;9.60;99.90
15481;DHT22;7842;50.904;6.670;2024-02-23T10:16:16;9.60;99.90
15481;DHT22;7842;50.904;6.670;2024-02-23T10:18:41;9.60;99.90
15481;DHT22;7842;50.904;6.670;2024-02-23T10:21:07;9.60;99.90
15481;DHT22;7842;50.904;6.670;2024-02-23T10:23:33;9.70;99.90
15481;DHT22;7842;50.904;6.670;2024-02-23T10:25:59;9.80;99.90
15481;DHT22;7842;50.904;6.670;2024-02-23T10:28:24;9.80;99.90
15481;DHT22;7842;50.904;6.670;2024-02-23T10:30:50;9.90;99.90
15481;DHT22;7842;50.904;6.670;2024-02-23T10:33:19;9.70;99.90
15481;DHT22;7842;50.904;6.670;2024-02-23T10:35:46;9.60;99.90
15481;DHT22;7842;50.904;6.670;2024-02-23T10:38:17;9.60;99.90
15481;DHT22;7842;50.904;6.670;2024-02-23T10:40:44;9.70;99.90
15481;DHT22;7842;50.904;6.670;2024-02-23T10:43:12;9.90;99.90
15481;DHT22;7842;50.904;6.670;2024-02-23T10:45:41;9.90;99.90
15481;DHT22;7842;50.904;6.670;2024-02-23T10:48:09;9.80;99.90
15481;DHT22;7842;50.904;6.670;2024-02-23T10:50:36;9.70;99.90
15481;DHT22;7842;50.904;6.670;2024-02-23T10:53:04;9.50;99.90
15481;DHT22;7842;50.904;6.670;2024-02-23T10:55:32;9.40;99.90
15481;DHT22;7842;50.904;6.670;2024-02-23T10:57:59;9.40;99.90
15481;DHT22;7842;50.904;6.670;2024-02-23T11:00:25;9.20;99.90
15481;DHT22;7842;50.904;6.670;2024-02-23T11:02:53;9.30;99.90
15481;DHT22;7842;50.904;6.670;2024-02-23T11:05:20;9.20;99.90
15481;DHT22;7842;50.904;6.670;2024-02-23T11:07:49;9.20;99.90
15481;DHT22;7842;50.904;6.670;2024-02-23T11:10:16;9.30;99.90
15481;DHT22;7842;50.904;6.670;2024-02-23T11:12:42;9.20;99.90
15481;DHT22;7842;50.904;6.670;2024-02-23T11:15:08;9.40;99.90
15481;DHT22;7842;50.904;6.670;2024-02-23T11:17:35;9.40;99.90
15481;DHT22;7842;50.904;6.670;2024-02-23T11:20:05;9.50;99.90
15481;DHT22;7842;50.904;6.670;2024-02-23T11:22:33;9.50;99.90
15481;DHT22;7842;50.904;6.670;2024-02-23T11:25:09;9.50;99.90
15481;DHT22;7842;50.904;6.670;2024-02-23T11:27:37;9.50;99.90
15481;DHT22;7842;50.904;6.670;2024-02-23T11:30:04;9.50;99.90
15481;DHT22;7842;50.904;6.670;2024-02-23T11:32:41;9.60;99.90
15481;DHT22;7842;50.904;6.670;2024-02-23T11:35:10;9.60;99.90
15481;DHT22;7842;50.904;6.670;2024-02-23T11:37:52;9.60;99.90
15481;DHT22;7842;50.904;6.670;2024-02-23T11:40:30;9.60;99.90
15481;DHT22;7842;50.904;6.670;2024-02-23T11:42:56;9.60;99.90
15481;DHT22;7842;50.904;6.670;2024-02-23T11:45:23;9.60;99.90
15481;DHT22;7842;50.904;6.670;2024-02-23T11:47:49;9.50;99.90
15481;DHT22;7842;50.904;6.670;2024-02-23T11:50:14;9.50;99.90
15481;DHT22;7842;50.904;6.670;2024-02-23T11:52:46;9.50;99.90
15481;DHT22;7842;50.904;6.670;2024-02-23T11:55:11;9.50;99.90
15481;DHT22;7842;50.904;6.670;2024-02-23T11:57:38;9.50;99.90
15481;DHT22;7842;50.904;6.670;2024-02-23T12:00:05;9.60;99.90
15481;DHT22;7842;50.904;6.670;2024-02-23T12:02:37;9.60;99.90
15481;DHT22;7842;50.904;6.670;2024-02-23T12:05:03;9.60;99.90
15481;DHT22;7842;50.904;6.670;2024-02-23T12:07:29;9.50;99.90
15481;DHT22;7842;50.904;6.670;2024-02-23T12:09:56;9.60;99.90
15481;DHT22;7842;50.904;6.670;2024-02-23T12:12:22;9.80;99.90
15481;DHT22;7842;50.904;6.670;2024-02-23T12:14:48;9.90;99.90
15481;DHT22;7842;50.904;6.670;2024-02-23T12:17:14;9.70;99.90
15481;DHT22;7842;50.904;6.670;2024-02-23T12:19:40;9.70;99.90
15481;DHT22;7842;50.904;6.670;2024-02-23T12:22:06;9.70;99.90
15481;DHT22;7842;50.904;6.670;2024-02-23T12:24:31;9.80;99.90
15481;DHT22;7842;50.904;6.670;2024-02-23T12:26:57;9.90;99.90
15481;DHT22;7842;50.904;6.670;2024-02-23T12:29:23;10.10;99.90
15481;DHT22;7842;50.904;6.670;2024-02-23T12:31:49;10.20;99.90
15481;DHT22;7842;50.904;6.670;2024-02-23T12:34:15;10.30;99.90
15481;DHT22;7842;50.904;6.670;2024-02-23T12:36:41;10.40;99.90
15481;DHT22;7842;50.904;6.670;2024-02-23T12:39:08;10.40;99.90
15481;DHT22;7842;50.904;6.670;2024-02-23T12:41:33;10.60;99.90
15481;DHT22;7842;50.904;6.670;2024-02-23T12:43:59;10.60;99.90
15481;DHT22;7842;50.904;6.670;2024-02-23T12:46:25;10.50;99.90
15481;DHT22;7842;50.904;6.670;2024-02-23T12:48:51;10.50;99.90
15481;DHT22;7842;50.904;6.670;2024-02-23T12:51:17;10.70;99.90
15481;DHT22;7842;50.904;6.670;2024-02-23T12:53:43;10.80;99.90
15481;DHT22;7842;50.904;6.670;2024-02-23T12:56:13;10.70;99.90
15481;DHT22;7842;50.904;6.670;2024-02-23T12:58:42;10.70;99.90
15481;DHT22;7842;50.904;6.670;2024-02-23T13:01:08;10.80;99.90
15481;DHT22;7842;50.904;6.670;2024-02-23T13:03:35;10.90;99.90
15481;DHT22;7842;50.904;6.670;2024-02-23T13:06:02;11.00;99.90
15481;DHT22;7842;50.904;6.670;2024-02-23T13:08:28;11.10;99.90
15481;DHT22;7842;50.904;6.670;2024-02-23T13:10:54;11.10;99.90
15481;DHT22;7842;50.904;6.670;2024-02-23T13:13:21;11.00;99.90
15481;DHT22;7842;50.904;6.670;2024-02-23T13:15:48;10.90;99.90
15481;DHT22;7842;50.904;6.670;2024-02-23T13:18:14;11.00;99.90
15481;DHT22;7842;50.904;6.670;2024-02-23T13:20:40;11.10;99.90
15481;DHT22;7842;50.904;6.670;2024-02-23T13:23:12;11.20;99.90
15481;DHT22;7842;50.904;6.670;2024-02-23T13:25:39;11.20;99.90
15481;DHT22;7842;50.904;6.670;2024-02-23T13:28:05;11.00;99.90
15481;DHT22;7842;50.904;6.670;2024-02-23T13:30:32;11.00;99.90
15481;DHT22;7842;50.904;6.670;2024-02-23T13:32:58;10.90;99.90
15481;DHT22;7842;50.904;6.670;2024-02-23T13:35:23;10.80;99.90
15481;DHT22;7842;50.904;6.670;2024-02-23T13:37:49;10.70;99.90
15481;DHT22;7842;50.904;6.670;2024-02-23T13:40:15;10.60;99.90
15481;DHT22;7842;50.904;6.670;2024-02-23T13:42:41;10.60;99.90
15481;DHT22;7842;50.904;6.670;2024-02-23T13:45:07;10.80;99.90
15481;DHT22;7842;50.904;6.670;2024-02-23T13:47:34;11.00;99.90
15481;DHT22;7842;50.904;6.670;2024-02-23T13:50:03;11.00;99.90
15481;DHT22;7842;50.904;6.670;2024-02-23T13:52:29;11.00;99.90
15481;DHT22;7842;50.904;6.670;2024-02-23T13:54:55;11.00;99.90
15481;DHT22;7842;50.904;6.670;2024-02-23T13:57:21;11.10;99.90
15481;DHT22;7842;50.904;6.670;2024-02-23T13:59:47;11.40;99.90
15481;DHT22;7842;50.904;6.670;2024-02-23T14:02:13;11.60;99.90
15481;DHT22;7842;50.904;6.670;2024-02-23T14:04:38;11.70;99.90
15481;DHT22;7842;50.904;6.670;2024-02-23T14:07:04;11.50;99.90
15481;DHT22;7842;50.904;6.670;2024-02-23T14:09:30;11.30;99.90
15481;DHT22;7842;50.904;6.670;2024-02-23T14:11:56;11.20;99.90
15481;DHT22;7842;50.904;6.670;2024-02-23T14:14:22;11.20;99.90
15481;DHT22;7842;50.904;6.670;2024-02-23T14:16:49;11.00;99.90
15481;DHT22;7842;50.904;6.670;2024-02-23T14:19:14;10.90;99.90
15481;DHT22;7842;50.904;6.670;2024-02-23T14:21:40;10.70;99.90
15481;DHT22;7842;50.904;6.670;2024-02-23T14:24:06;10.60;99.90
15481;DHT22;7842;50.904;6.670;2024-02-23T14:26:31;10.50;99.90
15481;DHT22;7842;50.904;6.670;2024-02-23T14:28:58;10.40;99.90
15481;DHT22;7842;50.904;6.670;2024-02-23T14:31:24;10.50;99.90
15481;DHT22;7842;50.904;6.670;2024-02-23T14:33:51;10.60;99.90
15481;DHT22;7842;50.904;6.670;2024-02-23T14:36:17;10.60;99.90
15481;DHT22;7842;50.904;6.670;2024-02-23T14:38:43;10.70;99.90
15481;DHT22;7842;50.904;6.670;2024-02-23T14:41:09;10.60;99.90
15481;DHT22;7842;50.904;6.670;2024-02-23T14:43:35;10.30;99.90
15481;DHT22;7842;50.904;6.670;2024-02-23T14:46:02;10.30;99.90
15481;DHT22;7842;50.904;6.670;2024-02-23T14:48:28;10.20;99.90
15481;DHT22;7842;50.904;6.670;2024-02-23T14:50:53;10.10;99.90
15481;DHT22;7842;50.904;6.670;2024-02-23T14:53:19;10.20;99.90
15481;DHT22;7842;50.904;6.670;2024-02-23T14:55:45;10.00;99.90
15481;DHT22;7842;50.904;6.670;2024-02-23T14:58:11;10.00;99.90
15481;DHT22;7842;50.904;6.670;2024-02-23T15:00:36;10.00;99.90
15481;DHT22;7842;50.904;6.670;2024-02-23T15:03:03;10.00;99.90
15481;DHT22;7842;50.904;6.670;2024-02-23T15:05:28;10.10;99.90
15481;DHT22;7842;50.904;6.670;2024-02-23T15:07:55;10.10;99.90
15481;DHT22;7842;50.904;6.670;2024-02-23T15:10:20;10.10;99.90
15481;DHT22;7842;50.904;6.670;2024-02-23T15:12:46;10.20;99.90
15481;DHT22;7842;50.904;6.670;2024-02-23T15:15:12;10.20;99.90
15481;DHT22;7842;50.904;6.670;2024-02-23T15:17:37;10.20;99.90
15481;DHT22;7842;50.904;6.670;2024-02-23T15:20:04;10.30;99.90
15481;DHT22;7842;50.904;6.670;2024-02-23T15:22:30;10.20;99.90
15481;DHT22;7842;50.904;6.670;2024-02-23T15:24:55;10.30;99.90
15481;DHT22;7842;50.904;6.670;2024-02-23T15:27:23;10.20;99.90
15481;DHT22;7842;50.904;6.670;2024-02-23T15:29:49;10.20;99.90
15481;DHT22;7842;50.904;6.670;2024-02-23T15:32:15;10.40;99.90
15481;DHT22;7842;50.904;6.670;2024-02-23T15:34:41;10.40;99.90
15481;DHT22;7842;50.904;6.670;2024-02-23T15:37:07;10.20;99.90
15481;DHT22;7842;50.904;6.670;2024-02-23T15:39:32;10.10;99.90
15481;DHT22;7842;50.904;6.670;2024-02-23T15:41:58;10.10;99.90
15481;DHT22;7842;50.904;6.670;2024-02-23T15:44:24;10.10;99.90
15481;DHT22;7842;50.904;6.670;2024-02-23T15:46:49;10.00;99.90
15481;DHT22;7842;50.904;6.670;2024-02-23T15:49:15;9.90;99.90